»·PEaware :: WAT306 KOLM-KMSO

WAT306 :: KOLM-KMSO

FLIGHT INFORMATION

Flight Status: Arrived
Operator:
Walker Air Transport
More flights by this operator :: More flights under this callsign
Pilot: Ethan S. (29221)
Aircraft: SOCATA TBM-900
(TBM9)
More flights by this aircraft type
Origin: KOLM Olympia
United States
Destination: KMSO Missoula Intl
United States
More flights between these airports :: More routes between these airports
Route: +YELM5 ZADON ZELAK ZIRAN ZOOMR V2 MSO
File this flight plan on PilotEdge
Remarks:
Altitude:
(Current/Filed)
31,000ft
Speed:
(Current/Filed)
315kts
Departed: 21-Nov-20 08:35 PM
Arrived: 21-Nov-20 09:53 PM
Distance/Time
Traveled:
361nm/1:17
Distance/Time
To Go:
Arrived

Flight Plot

Page will automatically refresh every two minutes.

Flight plan parsing failed; only flown route is shown


Map Options




Map Legend


Flown Route
Filed Route
Departure Airport
Arrival Airport
Navaid (VOR, NDB)
Fix

Horizontal Profiles

Position Reports

Time Latitude Longitude Heading Altitude Ground
Speed
21-Nov-20 20:25 46.975540 -122.898804 280 196ft 0kts
21-Nov-20 20:26 46.975540 -122.898804 280 196ft 0kts
21-Nov-20 20:27 46.975540 -122.898804 280 196ft 0kts
21-Nov-20 20:28 46.975540 -122.898804 280 196ft 0kts
21-Nov-20 20:29 46.975540 -122.898804 280 196ft 0kts
21-Nov-20 20:30 46.975540 -122.898804 280 196ft 0kts
21-Nov-20 20:31 46.975751 -122.899833 322 195ft 6kts
21-Nov-20 20:32 46.976169 -122.901323 280 194ft 0kts
21-Nov-20 20:33 46.976169 -122.901323 280 194ft 0kts
21-Nov-20 20:34 46.966426 -122.905318 191 342ft 110kts
21-Nov-20 20:35 46.946506 -122.878165 79 2474ft 130kts
21-Nov-20 20:36 46.953870 -122.811590 79 3527ft 171kts
21-Nov-20 20:37 46.960288 -122.751674 79 6238ft 143kts
21-Nov-20 20:38 46.967282 -122.691797 79 8673ft 153kts
21-Nov-20 20:39 46.976255 -122.629009 79 11219ft 160kts
21-Nov-20 20:40 46.987389 -122.564048 78 13764ft 168kts
21-Nov-20 20:41 47.000084 -122.489249 78 15854ft 199kts
21-Nov-20 20:42 47.012894 -122.413946 78 18575ft 188kts
21-Nov-20 20:43 47.026069 -122.334653 79 20978ft 201kts
21-Nov-20 20:44 47.039450 -122.251306 79 23268ft 214kts
21-Nov-20 20:45 47.052599 -122.162557 82 25472ft 224kts
21-Nov-20 20:46 47.063542 -122.067903 82 27750ft 236kts
21-Nov-20 20:47 47.074765 -121.968587 81 30018ft 248kts
21-Nov-20 20:48 47.086752 -121.861570 81 31349ft 295kts
21-Nov-20 20:49 47.101613 -121.727916 80 31317ft 344kts
21-Nov-20 20:50 47.117596 -121.582221 80 31308ft 360kts
21-Nov-20 20:51 47.133809 -121.432430 80 31307ft 365kts
21-Nov-20 20:52 47.149877 -121.282076 81 31372ft 362kts
21-Nov-20 20:53 47.165585 -121.132833 80 31427ft 362kts
21-Nov-20 20:54 47.181199 -120.982785 79 31430ft 364kts
21-Nov-20 20:55 47.196824 -120.831178 79 31432ft 365kts
21-Nov-20 20:56 47.212256 -120.678989 79 31433ft 366kts
21-Nov-20 20:57 47.227483 -120.526733 79 31439ft 366kts
21-Nov-20 20:58 47.242637 -120.373069 79 31459ft 366kts
21-Nov-20 20:59 47.257375 -120.221492 80 31472ft 365kts
21-Nov-20 21:00 47.271932 -120.069642 80 31475ft 365kts
21-Nov-20 21:01 47.286313 -119.917450 80 31474ft 366kts
21-Nov-20 21:02 47.300576 -119.764270 80 31469ft 366kts
21-Nov-20 21:03 47.314600 -119.611392 80 31470ft 366kts
21-Nov-20 21:04 47.328519 -119.457335 80 31471ft 367kts
21-Nov-20 21:05 47.342254 -119.303011 80 31463ft 367kts
21-Nov-20 21:06 47.355596 -119.150604 80 31465ft 366kts
21-Nov-20 21:07 47.368730 -118.998041 80 31467ft 366kts
21-Nov-20 21:08 47.381714 -118.844836 79 31468ft 365kts
21-Nov-20 21:09 47.394435 -118.692751 78 31460ft 363kts
21-Nov-20 21:10 47.406978 -118.540097 78 31461ft 363kts
21-Nov-20 21:11 47.419322 -118.387189 78 31451ft 363kts
21-Nov-20 21:12 47.440069 -118.238802 67 31437ft 357kts
21-Nov-20 21:13 47.469841 -118.094940 67 31438ft 357kts
21-Nov-20 21:14 47.499348 -117.950923 67 31439ft 357kts
21-Nov-20 21:15 47.528732 -117.806444 67 31440ft 357kts
21-Nov-20 21:16 47.557868 -117.662138 67 31442ft 357kts
21-Nov-20 21:17 47.559636 -117.509531 91 31454ft 365kts
21-Nov-20 21:18 47.552116 -117.353824 91 31478ft 365kts
21-Nov-20 21:19 47.544594 -117.199895 92 31473ft 365kts
21-Nov-20 21:20 47.536828 -117.046328 91 31474ft 365kts
21-Nov-20 21:21 47.528883 -116.892750 89 31477ft 366kts
21-Nov-20 21:22 47.520757 -116.738176 88 31477ft 365kts
21-Nov-20 21:23 47.512361 -116.583554 89 31479ft 366kts
21-Nov-20 21:24 47.503717 -116.428405 89 31480ft 366kts
21-Nov-20 21:25 47.494916 -116.274105 89 31473ft 366kts
21-Nov-20 21:26 47.485933 -116.120401 89 31474ft 366kts
21-Nov-20 21:27 47.476785 -115.967368 89 31476ft 366kts
21-Nov-20 21:28 47.467404 -115.813886 89 31477ft 366kts
21-Nov-20 21:29 47.457568 -115.659710 94 31466ft 369kts
21-Nov-20 21:30 47.413098 -115.517565 115 31493ft 374kts
21-Nov-20 21:31 47.364578 -115.376662 115 31508ft 374kts
21-Nov-20 21:32 47.316204 -115.236604 115 31244ft 381kts
21-Nov-20 21:33 47.267751 -115.097131 115 29166ft 363kts
21-Nov-20 21:34 47.220935 -114.963022 114 27110ft 354kts
21-Nov-20 21:35 47.175014 -114.832043 114 25069ft 344kts
21-Nov-20 21:36 47.133345 -114.713957 114 24474ft 277kts
21-Nov-20 21:37 47.100566 -114.621291 114 24511ft 242kts
21-Nov-20 21:38 47.067493 -114.526711 113 22943ft 257kts
21-Nov-20 21:39 47.036107 -114.435787 113 20894ft 234kts
21-Nov-20 21:40 47.007292 -114.351230 113 18861ft 218kts
21-Nov-20 21:41 46.981131 -114.272854 114 16811ft 203kts
21-Nov-20 21:43 46.956655 -114.198298 114 14787ft 198kts
21-Nov-20 21:44 46.933268 -114.129213 132 14061ft 224kts
21-Nov-20 21:45 46.884543 -114.158950 233 12423ft 215kts
21-Nov-20 21:46 46.873611 -114.235123 303 10239ft 196kts
21-Nov-20 21:47 46.900267 -114.296573 303 10003ft 169kts
21-Nov-20 21:48 46.929512 -114.353953 344 9976ft 174kts
21-Nov-20 21:49 46.964796 -114.311788 73 9548ft 191kts
21-Nov-20 21:50 46.977274 -114.234499 73 7518ft 187kts
21-Nov-20 21:51 46.958159 -114.163538 133 5001ft 193kts
21-Nov-20 21:52 46.934164 -114.122501 128 3526ft 95kts
21-Nov-20 21:53 46.919198 -114.096897 131 3193ft 35kts
21-Nov-20 21:54 46.918635 -114.093365 35 3195ft 0kts
21-Nov-20 21:55 46.918432 -114.091930 130 3198ft 6kts
21-Nov-20 21:56 46.915863 -114.087535 130 3199ft 14kts
21-Nov-20 21:57 46.913152 -114.082893 130 3199ft 14kts
21-Nov-20 21:58 46.914942 -114.081126 359 3201ft 10kts
21-Nov-20 21:59 46.915044 -114.078102 73 3199ft 4kts
21-Nov-20 21:59 46.915142 -114.078056 0 3199ft 0kts
21-Nov-20 22:01 46.915142 -114.078056 0 3199ft 0kts

Navigation Log

Ident Type
Flight plan parsing failed, navigation log unavailable